Terminal Aerodrome Forecast
Issued by NWS Mt. Holly, NJ

Current Version | Previous Version | Text Only | Print | Product List | Glossary On
Versions: 1 2 3 4 5 6 7 8 9 10 11 12 13 14 15 16 17 18 19
000
FTUS41 KPHI 012300
TAFTTN
TAF
KTTN 012333Z 0200/0224 05007KT P6SM BKN025 OVC060
      TEMPO 0200/0203 SCT025 BKN060
     FM020300 03005KT P6SM BKN020
     FM021800 06008KT P6SM SCT020 BKN035=

USA.gov is the U.S. government's official web portal to all federal, state and local government web resources and services.